createdAt,value
2023-03-20T00:02:26.678Z,8.12
2023-03-20T00:04:55.305Z,8.13
2023-03-20T00:07:25.172Z,8.17
2023-03-20T00:09:55.003Z,8.18
2023-03-20T00:12:26.477Z,8.15
2023-03-20T00:14:55.060Z,8.18
2023-03-20T00:17:23.350Z,8.19
2023-03-20T00:19:51.736Z,8.22
2023-03-20T00:22:20.051Z,8.22
2023-03-20T00:24:49.907Z,8.15
2023-03-20T00:27:19.779Z,8.07
2023-03-20T00:29:48.064Z,8.12
2023-03-20T00:32:16.838Z,8.06
2023-03-20T00:34:45.188Z,8.05
2023-03-20T00:37:13.717Z,8.03
2023-03-20T00:39:42.550Z,8.00
2023-03-20T00:42:21.177Z,7.97
2023-03-20T00:44:53.306Z,7.96
2023-03-20T00:47:24.394Z,7.80
2023-03-20T00:49:54.472Z,7.95
2023-03-20T00:52:24.308Z,7.92
2023-03-20T00:54:52.724Z,7.33
2023-03-20T00:57:25.764Z,7.94
2023-03-20T00:59:58.418Z,7.67
2023-03-20T01:02:30.062Z,7.89
2023-03-20T01:04:58.985Z,7.84
2023-03-20T01:07:27.859Z,7.93
2023-03-20T01:09:56.391Z,7.91
2023-03-20T01:12:26.302Z,7.87
2023-03-20T01:14:57.545Z,7.84
2023-03-20T01:17:27.805Z,7.86
2023-03-20T01:19:57.120Z,7.90
2023-03-20T01:22:25.573Z,7.96
2023-03-20T01:24:54.040Z,7.93
2023-03-20T01:27:23.756Z,7.96
2023-03-20T01:29:53.836Z,7.99
2023-03-20T01:32:22.162Z,8.01
2023-03-20T01:34:51.475Z,8.00
2023-03-20T01:37:26.862Z,8.02
2023-03-20T01:39:57.376Z,7.97
2023-03-20T01:42:26.116Z,8.09
2023-03-20T01:44:55.964Z,8.10
2023-03-20T01:47:26.243Z,8.13
2023-03-20T01:50:22.802Z,8.11
2023-03-20T01:52:53.976Z,8.02
2023-03-20T01:55:23.444Z,7.85
2023-03-20T01:57:56.041Z,7.71
2023-03-20T02:00:26.332Z,7.90
2023-03-20T02:02:56.155Z,7.91
2023-03-20T02:05:24.944Z,7.59
2023-03-20T02:08:02.596Z,7.92
2023-03-20T02:10:31.165Z,7.92
2023-03-20T02:13:00.620Z,7.93
2023-03-20T02:15:32.062Z,7.94
2023-03-20T02:18:00.552Z,7.94
2023-03-20T02:20:41.598Z,7.98
2023-03-20T02:23:41.960Z,8.00
2023-03-20T02:26:36.275Z,8.01
2023-03-20T02:29:19.050Z,7.88
2023-03-20T02:32:12.387Z,7.97
2023-03-20T02:35:03.788Z,7.97
2023-03-20T02:38:08.068Z,7.97
2023-03-20T02:40:46.104Z,7.86
2023-03-20T02:43:22.256Z,7.91
2023-03-20T02:45:57.925Z,7.91
2023-03-20T02:48:40.801Z,7.71
2023-03-20T02:51:17.428Z,7.74
2023-03-20T02:53:54.114Z,7.75
2023-03-20T02:56:32.043Z,7.70
2023-03-20T02:59:12.645Z,7.68
2023-03-20T03:01:45.613Z,7.64
2023-03-20T03:04:19.302Z,7.61
2023-03-20T03:06:49.011Z,7.56
2023-03-20T03:09:22.787Z,7.56
2023-03-20T03:11:52.066Z,7.36
2023-03-20T03:14:31.172Z,7.41
2023-03-20T03:17:01.903Z,7.43
2023-03-20T03:19:31.838Z,7.46
2023-03-20T03:22:00.146Z,7.49
2023-03-20T03:24:40.783Z,7.53
2023-03-20T03:27:18.648Z,7.55
2023-03-20T03:29:52.605Z,7.40
2023-03-20T03:32:24.764Z,7.50
2023-03-20T03:34:53.533Z,7.61
2023-03-20T03:37:30.705Z,7.64
2023-03-20T03:40:11.988Z,7.66
2023-03-20T03:42:45.825Z,7.69
2023-03-20T03:45:17.476Z,7.73
2023-03-20T03:47:52.279Z,7.67
2023-03-20T03:50:27.033Z,7.71
2023-03-20T03:52:59.797Z,7.64
2023-03-20T03:55:36.656Z,7.73
2023-03-20T03:58:10.202Z,7.79
2023-03-20T04:00:43.191Z,7.83
2023-03-20T04:03:12.433Z,7.85
2023-03-20T04:05:45.937Z,7.88
2023-03-20T04:08:16.516Z,7.79
2023-03-20T04:10:46.262Z,7.94
2023-03-20T04:13:14.519Z,7.97
2023-03-20T04:15:43.171Z,7.97
2023-03-20T04:18:17.465Z,7.99
2023-03-20T04:20:46.407Z,7.99
2023-03-20T04:23:14.783Z,8.12
2023-03-20T04:25:43.308Z,8.15
2023-03-20T04:28:16.768Z,8.05
2023-03-20T04:30:48.351Z,7.96
2023-03-20T04:33:16.664Z,7.90
2023-03-20T04:35:45.096Z,8.04
2023-03-20T04:38:13.425Z,7.97
2023-03-20T04:40:41.888Z,7.98
2023-03-20T04:43:10.251Z,7.97
2023-03-20T04:45:40.129Z,7.99
2023-03-20T04:48:09.145Z,7.99
2023-03-20T04:50:37.442Z,7.99
2023-03-20T04:53:05.907Z,8.00
2023-03-20T04:55:34.600Z,7.91
2023-03-20T04:58:03.072Z,7.98
2023-03-20T05:00:31.476Z,7.98
2023-03-20T05:03:01.629Z,8.00
2023-03-20T05:05:29.931Z,8.01
2023-03-20T05:07:58.295Z,8.02
2023-03-20T05:10:26.752Z,8.04
2023-03-20T05:12:55.083Z,8.04
2023-03-20T05:15:23.372Z,8.05
2023-03-20T05:17:51.933Z,8.05
2023-03-20T05:20:21.769Z,8.02
2023-03-20T05:22:51.658Z,7.98
2023-03-20T05:25:20.094Z,7.93
2023-03-20T05:27:48.917Z,7.74
2023-03-20T05:30:17.623Z,7.67
2023-03-20T05:32:46.050Z,7.89
2023-03-20T05:35:14.396Z,7.86
2023-03-20T05:37:44.064Z,7.85
2023-03-20T05:40:14.896Z,7.87
2023-03-20T05:42:43.469Z,7.56
2023-03-20T05:45:12.674Z,7.85
2023-03-20T05:47:41.585Z,7.83
2023-03-20T05:50:12.016Z,7.82
2023-03-20T05:52:40.818Z,7.83
2023-03-20T05:55:11.008Z,7.85
2023-03-20T05:57:39.322Z,7.89
2023-03-20T06:00:10.539Z,7.73
2023-03-20T06:02:39.053Z,7.88
2023-03-20T06:05:08.120Z,7.97
2023-03-20T06:07:36.425Z,8.02
2023-03-20T06:10:04.910Z,8.05
2023-03-20T06:12:34.710Z,8.10
2023-03-20T06:15:03.025Z,8.15
2023-03-20T06:17:31.350Z,8.21
2023-03-20T06:19:59.633Z,8.20
2023-03-20T06:22:28.541Z,7.96
2023-03-20T06:24:57.451Z,8.24
2023-03-20T06:27:26.076Z,8.20
2023-03-20T06:29:55.884Z,8.18
2023-03-20T06:32:24.508Z,8.03
2023-03-20T06:34:52.866Z,8.19
2023-03-20T06:37:22.093Z,8.16
2023-03-20T06:39:51.137Z,8.17
2023-03-20T06:42:19.476Z,8.17
2023-03-20T06:44:47.827Z,8.08
2023-03-20T06:47:17.740Z,8.25
2023-03-20T06:49:46.214Z,8.27
2023-03-20T06:52:18.168Z,8.28
2023-03-20T06:54:46.945Z,8.49
2023-03-20T06:57:17.818Z,8.40
2023-03-20T06:59:46.126Z,8.24
2023-03-20T07:02:14.471Z,8.31
2023-03-20T07:04:44.345Z,8.40
2023-03-20T07:07:12.994Z,8.34
2023-03-20T07:09:41.443Z,8.45
2023-03-20T07:12:15.111Z,8.52
2023-03-20T07:14:43.152Z,8.45
2023-03-20T07:17:12.545Z,8.59
2023-03-20T07:19:41.556Z,8.69
2023-03-20T07:22:19.765Z,8.76
2023-03-20T07:24:48.022Z,8.82
2023-03-20T07:27:16.757Z,8.91
2023-03-20T07:29:45.199Z,8.90
2023-03-20T07:32:13.587Z,8.87
2023-03-20T07:34:42.161Z,8.84
2023-03-20T07:37:12.138Z,8.83
2023-03-20T07:39:40.843Z,8.75
2023-03-20T07:42:09.319Z,8.78
2023-03-20T07:44:37.722Z,8.81
2023-03-20T07:47:07.316Z,8.82
2023-03-20T07:49:36.032Z,8.86
2023-03-20T07:52:04.504Z,8.90
2023-03-20T07:54:34.836Z,8.88
2023-03-20T07:57:05.535Z,8.91
2023-03-20T07:59:34.103Z,9.02
2023-03-20T08:02:02.442Z,9.06
2023-03-20T08:04:30.770Z,8.93
2023-03-20T08:06:59.169Z,9.06
2023-03-20T08:09:27.597Z,9.23
2023-03-20T08:11:57.425Z,9.28
2023-03-20T08:14:25.971Z,9.20
2023-03-20T08:17:12.333Z,9.31
2023-03-20T08:19:42.425Z,9.37
2023-03-20T08:22:11.063Z,9.39
2023-03-20T08:24:39.621Z,9.29
2023-03-20T08:27:09.449Z,9.40
2023-03-20T08:29:38.028Z,9.38
2023-03-20T08:32:07.490Z,9.38
2023-03-20T08:34:35.956Z,9.51
2023-03-20T08:37:05.126Z,9.54
2023-03-20T08:39:33.477Z,9.40
2023-03-20T08:42:01.833Z,9.39
2023-03-20T08:44:31.795Z,9.38
2023-03-20T08:47:00.165Z,9.41
2023-03-20T08:49:29.486Z,9.43
2023-03-20T08:51:57.896Z,9.57
2023-03-20T08:54:26.241Z,9.56
2023-03-20T08:56:54.893Z,9.65
2023-03-20T08:59:23.329Z,9.61
2023-03-20T09:01:53.186Z,9.53
2023-03-20T09:04:21.485Z,9.59
2023-03-20T09:06:50.740Z,9.49
2023-03-20T09:09:21.765Z,9.50
2023-03-20T09:11:50.200Z,9.47
2023-03-20T09:14:18.663Z,9.41
2023-03-20T09:16:47.272Z,9.43
2023-03-20T09:19:17.141Z,9.40
2023-03-20T09:21:45.634Z,9.38
2023-03-20T09:24:14.269Z,9.39
2023-03-20T09:26:42.552Z,9.40
2023-03-20T09:29:11.108Z,9.28
2023-03-20T09:31:39.455Z,9.47
2023-03-20T09:34:07.962Z,9.55
2023-03-20T09:36:37.773Z,9.58
2023-03-20T09:39:06.297Z,9.54
2023-03-20T09:41:49.203Z,9.54
2023-03-20T09:44:41.440Z,9.58
2023-03-20T09:47:21.204Z,9.62
2023-03-20T09:50:07.898Z,9.60
2023-03-20T09:52:42.343Z,9.62
2023-03-20T09:55:16.133Z,9.61
2023-03-20T09:57:48.965Z,9.60
2023-03-20T10:00:21.301Z,9.58
2023-03-20T10:02:54.252Z,9.57
2023-03-20T10:05:27.490Z,9.57
2023-03-20T10:08:00.600Z,9.54
2023-03-20T10:10:39.239Z,9.57
2023-03-20T10:13:20.098Z,9.64
2023-03-20T10:15:54.135Z,9.76
2023-03-20T10:18:26.916Z,9.79
2023-03-20T10:20:59.073Z,9.95
2023-03-20T10:23:36.724Z,9.87
2023-03-20T10:26:09.455Z,9.87
2023-03-20T10:28:45.139Z,9.83
2023-03-20T10:31:31.600Z,9.88
2023-03-20T10:34:12.384Z,9.90
2023-03-20T10:36:52.576Z,9.98
2023-03-20T10:39:31.923Z,9.89
2023-03-20T10:42:03.437Z,9.85
2023-03-20T10:44:36.552Z,9.85
2023-03-20T10:47:09.291Z,9.85
2023-03-20T10:49:42.198Z,9.71
2023-03-20T10:52:16.342Z,9.97
2023-03-20T10:54:51.160Z,9.93
2023-03-20T10:57:24.778Z,9.90
2023-03-20T10:59:54.933Z,9.95
2023-03-20T11:02:27.160Z,9.92
2023-03-20T11:04:55.467Z,9.96
2023-03-20T11:07:27.465Z,9.83
2023-03-20T11:10:17.152Z,9.89
2023-03-20T11:12:47.613Z,9.90
2023-03-20T11:15:27.062Z,9.98
2023-03-20T11:17:57.761Z,9.91
2023-03-20T11:20:27.536Z,10.03
2023-03-20T11:23:01.049Z,10.10
2023-03-20T11:25:36.070Z,10.18
2023-03-20T11:28:38.819Z,10.25
2023-03-20T11:31:15.974Z,10.31
2023-03-20T11:33:46.368Z,10.28
2023-03-20T11:36:25.897Z,10.14
2023-03-20T11:39:02.547Z,10.15
2023-03-20T11:41:32.595Z,10.28
2023-03-20T11:44:01.289Z,9.96
2023-03-20T11:46:29.717Z,10.18
2023-03-20T11:49:07.963Z,10.15
2023-03-20T11:51:38.262Z,9.97
2023-03-20T11:54:09.313Z,9.89
2023-03-20T11:56:39.137Z,9.99
2023-03-20T11:59:15.565Z,10.05
2023-03-20T12:01:48.984Z,9.85
2023-03-20T12:04:19.040Z,9.85
2023-03-20T12:06:54.644Z,9.78
2023-03-20T12:09:35.700Z,9.76
2023-03-20T12:12:14.945Z,9.49
2023-03-20T12:14:51.706Z,9.74
2023-03-20T12:17:36.776Z,9.78
2023-03-20T12:20:22.166Z,9.66
2023-03-20T12:22:58.292Z,9.68
2023-03-20T12:25:28.678Z,9.65
2023-03-20T12:28:08.143Z,9.80
2023-03-20T12:30:58.280Z,9.80
2023-03-20T12:33:36.434Z,9.83
2023-03-20T12:36:06.653Z,9.71
2023-03-20T12:38:35.719Z,9.93
2023-03-20T12:41:13.356Z,10.04
2023-03-20T12:44:06.258Z,9.96
2023-03-20T12:46:42.246Z,10.08
2023-03-20T12:49:21.200Z,10.15
2023-03-20T12:52:00.160Z,10.16
2023-03-20T12:54:49.985Z,10.20
2023-03-20T12:57:26.809Z,10.24
2023-03-20T13:00:13.248Z,10.28
2023-03-20T13:02:52.005Z,10.28
2023-03-20T13:05:34.776Z,10.24
2023-03-20T13:08:32.706Z,10.25
2023-03-20T13:11:07.149Z,10.09
2023-03-20T13:13:43.261Z,10.34
2023-03-20T13:16:22.056Z,10.51
2023-03-20T13:18:59.711Z,10.51
2023-03-20T13:21:37.430Z,10.54
2023-03-20T13:24:24.103Z,10.59
2023-03-20T13:27:00.132Z,10.39
2023-03-20T13:29:35.587Z,10.39
2023-03-20T13:32:16.199Z,10.34
2023-03-20T13:35:00.892Z,10.34
2023-03-20T13:37:36.110Z,10.27
2023-03-20T13:40:16.115Z,10.18
2023-03-20T13:42:52.144Z,10.06
2023-03-20T13:45:32.188Z,9.98
2023-03-20T13:48:07.278Z,10.08
2023-03-20T13:50:44.055Z,10.07
2023-03-20T13:53:23.445Z,9.99
2023-03-20T13:56:01.928Z,10.06
2023-03-20T13:59:03.807Z,10.00
2023-03-20T14:01:42.240Z,9.90
2023-03-20T14:04:16.263Z,9.65
2023-03-20T14:06:55.512Z,9.88
2023-03-20T14:09:30.031Z,9.97
2023-03-20T14:12:02.696Z,9.85
2023-03-20T14:14:32.668Z,9.92
2023-03-20T14:17:10.266Z,9.85
2023-03-20T14:19:40.470Z,9.84
2023-03-20T14:22:17.154Z,9.89
2023-03-20T14:24:55.162Z,9.99
2023-03-20T14:27:42.975Z,10.08
2023-03-20T14:30:40.196Z,10.21
2023-03-20T14:33:26.164Z,10.32
2023-03-20T14:36:19.095Z,10.23
2023-03-20T14:38:55.339Z,10.21
2023-03-20T14:41:29.772Z,10.23
2023-03-20T14:44:16.395Z,10.35
2023-03-20T14:46:53.038Z,10.17
2023-03-20T14:49:34.203Z,10.21
2023-03-20T14:52:18.617Z,10.33
2023-03-20T14:54:53.875Z,10.31
2023-03-20T14:57:35.768Z,10.35
2023-03-20T15:00:20.135Z,10.57
2023-03-20T15:02:51.789Z,10.42
2023-03-20T15:05:29.433Z,10.31
2023-03-20T15:08:04.489Z,10.35
2023-03-20T15:10:37.430Z,10.41
2023-03-20T15:13:09.102Z,10.45
2023-03-20T15:15:37.443Z,10.48
2023-03-20T15:18:08.937Z,10.46
2023-03-20T15:20:38.251Z,10.54
2023-03-20T15:23:09.085Z,10.28
2023-03-20T15:25:41.139Z,10.18
2023-03-20T15:28:13.322Z,10.08
2023-03-20T15:30:42.332Z,10.09
2023-03-20T15:33:18.133Z,10.10
2023-03-20T15:35:47.059Z,10.14
2023-03-20T15:38:18.337Z,10.04
2023-03-20T15:40:51.367Z,9.69
2023-03-20T15:43:22.949Z,10.01
2023-03-20T15:46:14.103Z,9.95
2023-03-20T15:48:48.168Z,10.03
2023-03-20T15:51:17.602Z,9.95
2023-03-20T15:53:49.816Z,10.02
2023-03-20T15:56:21.182Z,9.82
2023-03-20T15:58:53.949Z,10.03
2023-03-20T16:01:24.517Z,10.04
2023-03-20T16:03:54.176Z,9.91
2023-03-20T16:06:23.712Z,9.76
2023-03-20T16:09:00.979Z,9.81
2023-03-20T16:11:38.587Z,9.68
2023-03-20T16:14:08.463Z,9.76
2023-03-20T16:16:37.858Z,9.68
2023-03-20T16:19:07.601Z,9.64
2023-03-20T16:21:39.190Z,9.69
2023-03-20T16:24:16.348Z,9.60
2023-03-20T16:26:49.300Z,9.47
2023-03-20T16:29:19.036Z,9.49
2023-03-20T16:31:51.211Z,9.55
2023-03-20T16:34:22.941Z,9.52
2023-03-20T16:36:55.522Z,9.47
2023-03-20T16:39:27.549Z,9.18
2023-03-20T16:42:10.296Z,9.41
2023-03-20T16:44:39.702Z,9.39
2023-03-20T16:47:18.630Z,9.42
2023-03-20T16:50:06.151Z,9.40
2023-03-20T16:52:38.959Z,9.19
2023-03-20T16:55:16.069Z,8.83
2023-03-20T16:57:47.380Z,9.39
2023-03-20T17:00:25.801Z,9.32
2023-03-20T17:03:01.364Z,9.22
2023-03-20T17:05:49.142Z,9.19
2023-03-20T17:08:24.706Z,9.23
2023-03-20T17:10:58.362Z,9.28
2023-03-20T17:13:26.357Z,9.03
2023-03-20T17:15:55.420Z,9.01
2023-03-20T17:18:24.547Z,9.06
2023-03-20T17:20:52.902Z,9.05
2023-03-20T17:23:23.077Z,9.07
2023-03-20T17:25:54.265Z,8.86
2023-03-20T17:28:25.112Z,8.76
2023-03-20T17:30:53.993Z,9.00
2023-03-20T17:33:22.423Z,9.04
2023-03-20T17:35:51.078Z,9.02
2023-03-20T17:38:22.778Z,8.86
2023-03-20T17:40:52.364Z,8.79
2023-03-20T17:43:22.913Z,8.67
2023-03-20T17:45:51.336Z,8.83
2023-03-20T17:48:21.745Z,8.82
2023-03-20T17:50:51.696Z,8.66
2023-03-20T17:53:21.908Z,8.83
2023-03-20T17:55:50.230Z,8.78
2023-03-20T17:58:23.471Z,8.72
2023-03-20T18:00:52.898Z,8.58
2023-03-20T18:03:21.804Z,8.74
2023-03-20T18:05:52.059Z,8.71
2023-03-20T18:08:22.636Z,8.63
2023-03-20T18:10:52.156Z,8.57
2023-03-20T18:13:22.512Z,8.68
2023-03-20T18:15:51.724Z,8.50
2023-03-20T18:18:23.730Z,8.56
2023-03-20T18:20:55.266Z,8.51
2023-03-20T18:23:23.922Z,8.30
2023-03-20T18:25:53.274Z,8.29
2023-03-20T18:28:23.525Z,8.22
2023-03-20T18:30:52.790Z,8.26
2023-03-20T18:33:25.785Z,8.24
2023-03-20T18:35:54.214Z,8.18
2023-03-20T18:38:24.935Z,8.26
2023-03-20T18:40:53.266Z,7.77
2023-03-20T18:43:23.370Z,8.05
2023-03-20T18:45:51.759Z,7.90
2023-03-20T18:48:20.378Z,8.06
2023-03-20T18:50:51.102Z,7.90
2023-03-20T18:53:20.331Z,7.89
2023-03-20T18:55:49.091Z,7.84
2023-03-20T18:58:23.941Z,6.11
2023-03-20T19:00:54.219Z,7.54
2023-03-20T19:03:24.633Z,7.32
2023-03-20T19:05:53.890Z,7.68
2023-03-20T19:08:22.877Z,7.66
2023-03-20T19:10:51.915Z,7.67
2023-03-20T19:13:22.679Z,7.67
2023-03-20T19:15:51.393Z,7.74
2023-03-20T19:25:34.283Z,6.09
2023-03-20T19:31:54.361Z,7.54
2023-03-20T19:37:19.747Z,7.53
2023-03-20T19:39:48.080Z,7.59
2023-03-20T19:42:47.534Z,7.53
2023-03-20T19:45:06.678Z,7.48
2023-03-20T19:47:35.051Z,6.52
2023-03-20T19:50:04.827Z,7.26
2023-03-20T19:52:36.991Z,7.50
2023-03-20T19:55:05.835Z,7.39
2023-03-20T19:57:34.652Z,7.32
2023-03-20T20:00:54.833Z,7.31
2023-03-20T20:02:52.241Z,7.36
2023-03-20T20:05:26.656Z,6.79
2023-03-20T20:10:48.158Z,7.14
2023-03-20T20:13:19.183Z,7.27
2023-03-20T20:15:48.812Z,6.62
2023-03-20T20:18:17.808Z,7.13
2023-03-20T20:21:28.769Z,6.54
2023-03-20T20:23:38.414Z,7.09
2023-03-20T20:26:09.663Z,6.33
2023-03-20T20:28:38.151Z,7.04
2023-03-20T20:31:06.919Z,6.56
2023-03-20T20:33:36.820Z,7.05
2023-03-20T20:36:57.623Z,7.04
2023-03-20T20:39:01.147Z,6.82
2023-03-20T20:41:29.606Z,6.95
2023-03-20T20:44:17.633Z,6.78
2023-03-20T20:49:29.823Z,4.68
2023-03-20T20:52:04.132Z,5.70
2023-03-20T20:55:34.694Z,6.88
2023-03-20T21:07:27.788Z,5.20
2023-03-20T21:09:56.239Z,5.21
2023-03-20T21:12:35.123Z,6.57
2023-03-20T21:15:08.298Z,5.40
2023-03-20T21:17:36.912Z,5.73
2023-03-20T21:20:07.404Z,6.79
2023-03-20T21:29:10.001Z,6.84
2023-03-20T21:31:42.966Z,5.25
2023-03-20T21:36:08.228Z,4.19
2023-03-20T21:43:47.340Z,6.59
2023-03-20T21:56:23.566Z,4.13
2023-03-20T21:59:02.907Z,6.48
2023-03-20T22:13:13.922Z,6.16
2023-03-20T22:15:54.483Z,6.45
2023-03-20T22:21:41.469Z,6.50
2023-03-20T22:27:42.859Z,6.43
2023-03-20T22:46:45.182Z,6.45
2023-03-20T22:49:13.977Z,6.52
2023-03-20T22:51:57.476Z,6.52
2023-03-20T22:54:31.981Z,6.56
2023-03-20T22:57:00.471Z,6.57
2023-03-20T22:59:28.817Z,6.58
2023-03-20T23:01:57.066Z,6.51
2023-03-20T23:04:25.464Z,6.51
2023-03-20T23:06:53.717Z,6.55
2023-03-20T23:09:22.132Z,6.58
2023-03-20T23:11:51.889Z,6.59
2023-03-20T23:14:22.190Z,6.55
2023-03-20T23:16:51.089Z,6.52
2023-03-20T23:19:19.605Z,6.48
2023-03-20T23:21:48.070Z,6.49
2023-03-20T23:24:17.042Z,6.52
2023-03-20T23:26:45.609Z,6.57
2023-03-20T23:29:15.346Z,6.53
2023-03-20T23:31:44.018Z,6.39
2023-03-20T23:34:12.445Z,6.52
2023-03-20T23:36:40.827Z,6.48
2023-03-20T23:39:12.494Z,6.49
2023-03-20T23:42:05.091Z,6.60
2023-03-20T23:44:31.058Z,5.99
2023-03-20T23:47:01.357Z,6.61
2023-03-20T23:49:31.697Z,6.63
2023-03-20T23:52:00.040Z,6.59
2023-03-20T23:54:28.977Z,6.58
2023-03-20T23:56:57.275Z,6.58
2023-03-20T23:59:25.552Z,6.49
